Time;durP1;ratioP1;P1;durP2;ratioP2;P2;SDS_P1;SDS_P2;PMS_P1;PMS_P2;Temp;Humidity;BMP_temperature;BMP_pressure;BME280_temperature;BME280_humidity;BME280_pressure;Samples;Min_cycle;Max_cycle;Signal;HPM_P1;HPM_P2
2022/10/18 00:01:44;;;;;;;24.45;14.35;;;;;;;14.92;79.24;101553.14;1665123;84;25802;-80
2022/10/18 00:04:10;;;;;;;19.67;13.65;;;;;;;14.86;79.06;101548.52;1664385;84;25887;-81
2022/10/18 00:06:36;;;;;;;19.73;13.93;;;;;;;14.81;79.02;101545.05;1669806;84;28267;-81
2022/10/18 00:09:04;;;;;;;21.00;14.80;;;;;;;14.76;78.96;101542.08;1665155;84;25912;-82
2022/10/18 00:11:30;;;;;;;20.55;13.70;;;;;;;14.69;79.00;101535.80;1664932;84;25762;-80
2022/10/18 00:13:57;;;;;;;19.70;13.70;;;;;;;14.65;79.11;101538.02;1666451;84;26178;-80
2022/10/18 00:16:23;;;;;;;20.52;13.58;;;;;;;14.62;79.12;101537.06;1670136;85;25823;-79
2022/10/18 00:18:49;;;;;;;23.77;13.98;;;;;;;14.59;79.15;101536.09;1658403;85;27471;-81
2022/10/18 00:21:20;;;;;;;21.00;13.08;;;;;;;14.54;79.12;101525.03;1670803;84;26279;-80
2022/10/18 00:23:48;;;;;;;20.97;13.55;;;;;;;14.50;79.12;101523.73;1654921;84;25964;-80
2022/10/18 00:26:25;;;;;;;18.17;13.53;;;;;;;14.45;79.14;101511.36;1674381;84;25838;-81
2022/10/18 00:28:56;;;;;;;25.00;14.07;;;;;;;14.43;79.25;101511.22;1671239;84;26431;-82
2022/10/18 00:31:33;;;;;;;21.00;12.65;;;;;;;14.41;79.38;101510.58;1673529;83;27487;-80
2022/10/18 00:34:12;;;;;;;18.82;12.68;;;;;;;14.39;79.42;101516.14;1655386;83;26209;-83
2022/10/18 00:36:38;;;;;;;19.42;13.83;;;;;;;14.36;79.31;101512.48;1659225;84;25733;-82
2022/10/18 00:39:07;;;;;;;21.35;14.87;;;;;;;14.32;79.23;101514.40;1638119;86;25537;-81
2022/10/18 00:41:36;;;;;;;18.82;13.88;;;;;;;14.31;79.33;101509.52;1684258;83;25841;-81
2022/10/18 00:44:14;;;;;;;18.07;12.58;;;;;;;14.30;79.37;101512.41;1671676;83;27469;-81
2022/10/18 00:46:45;;;;;;;19.40;12.53;;;;;;;14.29;79.47;101508.87;1668268;83;26499;-82
2022/10/18 00:49:16;;;;;;;19.30;12.47;;;;;;;14.27;79.49;101511.39;1665254;83;26561;-82
2022/10/18 00:51:51;;;;;;;18.60;11.35;;;;;;;14.26;79.56;101506.54;1642415;86;26300;-81
2022/10/18 00:54:19;;;;;;;16.48;12.75;;;;;;;14.24;79.58;101504.52;1622864;87;25815;-82
2022/10/18 00:56:46;;;;;;;17.75;11.55;;;;;;;14.23;79.63;101500.67;1639987;85;27484;-83
2022/10/18 00:59:15;;;;;;;17.37;11.33;;;;;;;14.22;79.67;101500.36;1667134;84;26348;-82
2022/10/18 01:01:43;;;;;;;15.83;11.22;;;;;;;14.21;79.75;101499.52;1647085;85;25937;-83
2022/10/18 01:04:12;;;;;;;19.73;11.53;;;;;;;14.19;79.89;101492.14;1665716;85;25772;-82
2022/10/18 01:07:02;;;;;;;18.87;11.08;;;;;;;14.19;80.06;101488.60;1645477;84;26221;-81
2022/10/18 01:09:48;;;;;;;17.17;11.33;;;;;;;14.19;80.19;101488.60;1655032;84;27491;-82
2022/10/18 01:12:23;;;;;;;17.92;11.12;;;;;;;14.17;80.34;101491.49;1653244;85;25585;-81
2022/10/18 01:15:00;;;;;;;16.02;10.85;;;;;;;14.15;80.47;101482.77;1661255;85;25777;-83
2022/10/18 01:17:38;;;;;;;15.18;11.15;;;;;;;14.15;80.55;101485.97;1662888;85;25929;-82
2022/10/18 01:20:48;;;;;;;16.48;10.38;;;;;;;14.14;80.60;101481.08;1661715;84;25867;-82
2022/10/18 01:23:27;;;;;;;14.50;10.13;;;;;;;14.14;80.62;101480.23;1665275;85;28315;-80
2022/10/18 01:26:14;;;;;;;16.37;11.03;;;;;;;14.13;80.69;101474.54;1669896;85;25755;-82
2022/10/18 01:31:13;;;;;;;17.75;9.88;;;;;;;14.14;80.82;101480.23;1780846;78;26131;-80
2022/10/18 01:33:52;;;;;;;12.07;9.70;;;;;;;14.10;80.82;101471.70;1745038;80;26031;-81
2022/10/18 01:36:33;;;;;;;15.38;9.53;;;;;;;14.10;80.80;101474.91;1756348;80;27448;-79
2022/10/18 01:39:05;;;;;;;15.15;9.35;;;;;;;14.10;80.79;101481.64;1679400;84;25793;-81
2022/10/18 01:41:34;;;;;;;17.82;10.55;;;;;;;14.10;80.80;101476.25;1725513;81;25280;-81
2022/10/18 01:44:04;;;;;;;18.40;10.23;;;;;;;14.12;80.84;101480.94;1685366;83;25874;-81
2022/10/18 01:46:33;;;;;;;12.93;9.33;;;;;;;14.13;80.78;101486.66;1676775;84;25800;-83
2022/10/18 01:48:59;;;;;;;11.15;8.68;;;;;;;14.13;80.73;101482.62;1713182;82;27639;-80
2022/10/18 01:51:28;;;;;;;11.85;8.93;;;;;;;14.12;80.67;101480.44;1701779;83;25987;-81
2022/10/18 01:53:56;;;;;;;12.70;9.05;;;;;;;14.12;80.59;101476.90;1700607;82;25696;-80
2022/10/18 01:56:28;;;;;;;13.55;8.78;;;;;;;14.11;80.56;101477.44;1691158;82;25813;-80
2022/10/18 01:59:06;;;;;;;11.70;8.53;;;;;;;14.12;80.58;101472.86;1702963;82;25790;-81
2022/10/18 02:01:43;;;;;;;13.13;9.03;;;;;;;14.12;80.53;101475.55;1642841;84;27509;-79
2022/10/18 02:04:30;;;;;;;11.55;8.88;;;;;;;14.12;80.46;101474.20;1697503;82;25871;-82
2022/10/18 02:07:05;;;;;;;10.93;9.15;;;;;;;14.11;80.36;101477.94;1698220;84;26141;-81
2022/10/18 02:09:42;;;;;;;13.05;8.35;;;;;;;14.09;80.30;101482.17;1698251;84;25819;-81
2022/10/18 02:12:12;;;;;;;15.40;8.78;;;;;;;14.08;80.38;101484.53;1690800;82;26390;-79
2022/10/18 02:14:40;;;;;;;11.90;9.20;;;;;;;14.08;80.28;101485.88;1702420;82;27429;-82
2022/10/18 02:17:09;;;;;;;12.50;8.78;;;;;;;14.08;80.21;101476.45;1679031;84;25889;-83
2022/10/18 02:19:43;;;;;;;13.30;9.13;;;;;;;14.06;80.08;101486.58;1699705;82;25789;-80
2022/10/18 02:22:11;;;;;;;13.38;8.53;;;;;;;14.02;80.10;101481.25;1705069;82;25775;-82
2022/10/18 02:24:42;;;;;;;13.20;8.75;;;;;;;14.02;80.18;101483.94;1700506;82;25809;-81
2022/10/18 02:27:09;;;;;;;14.43;8.18;;;;;;;14.00;80.14;101475.72;1676859;82;27537;-82
2022/10/18 02:29:36;;;;;;;12.03;8.00;;;;;;;13.98;80.16;101477.77;1689741;83;25763;-82
2022/10/18 02:32:20;;;;;;;10.75;8.28;;;;;;;13.98;80.25;101480.45;1704150;82;25872;-81
2022/10/18 02:34:54;;;;;;;11.15;8.50;;;;;;;13.97;80.18;101476.08;1691442;82;25836;-81
2022/10/18 02:37:21;;;;;;;13.08;8.38;;;;;;;13.96;80.10;101477.13;1699906;82;25976;-83
2022/10/18 02:39:50;;;;;;;11.55;9.18;;;;;;;13.96;80.15;101476.62;1698209;82;27421;-81
2022/10/18 02:42:17;;;;;;;11.28;8.50;;;;;;;13.95;80.11;101476.28;1697576;83;26155;-81
2022/10/18 02:44:43;;;;;;;12.13;8.88;;;;;;;13.94;80.08;101477.31;1695797;83;25822;-82
2022/10/18 02:47:11;;;;;;;9.83;8.40;;;;;;;13.92;80.05;101475.32;1695936;83;25862;-81
2022/10/18 02:49:37;;;;;;;17.75;9.63;;;;;;;13.91;80.08;101471.78;1700141;83;25847;-82
2022/10/18 02:52:03;;;;;;;13.55;8.70;;;;;;;13.89;80.03;101476.53;1699424;83;27728;-81
2022/10/18 02:54:30;;;;;;;13.05;8.43;;;;;;;13.89;80.09;101477.03;1699663;83;25819;-81
2022/10/18 02:56:56;;;;;;;10.38;8.08;;;;;;;13.87;80.10;101478.57;1699159;83;25818;-81
2022/10/18 02:59:22;;;;;;;17.32;8.70;;;;;;;13.85;80.08;101477.08;1706304;83;25823;-81
2022/10/18 03:01:49;;;;;;;13.05;8.70;;;;;;;13.85;80.14;101478.43;1703485;83;25755;-82
2022/10/18 03:04:15;;;;;;;11.25;8.13;;;;;;;13.84;80.13;101480.28;1703792;82;27451;-80
2022/10/18 03:06:41;;;;;;;11.35;8.45;;;;;;;13.84;80.15;101478.09;1703408;83;26494;-81
2022/10/18 03:09:09;;;;;;;13.13;8.45;;;;;;;13.85;80.12;101481.97;1695052;83;25962;-81
2022/10/18 03:11:35;;;;;;;15.83;8.48;;;;;;;13.85;80.12;101477.08;1692593;83;26626;-80
2022/10/18 03:14:01;;;;;;;12.20;7.87;;;;;;;13.83;80.09;101477.28;1695553;83;26173;-81
2022/10/18 03:16:27;;;;;;;11.75;7.65;;;;;;;13.84;80.08;101472.20;1708509;83;27472;-81
2022/10/18 03:18:54;;;;;;;10.40;8.30;;;;;;;13.85;80.06;101470.35;1688790;83;25609;-81
2022/10/18 03:21:20;;;;;;;12.75;8.28;;;;;;;13.85;79.96;101476.58;1699069;83;25318;-80
2022/10/18 03:23:46;;;;;;;12.37;8.38;;;;;;;13.83;80.08;101470.55;1706350;82;25913;-83
2022/10/18 03:26:13;;;;;;;12.47;8.20;;;;;;;13.83;79.98;101475.93;1694477;83;25745;-82
2022/10/18 03:28:39;;;;;;;13.08;8.53;;;;;;;13.82;79.86;101474.25;1696830;83;27486;-80
2022/10/18 03:31:05;;;;;;;11.90;7.50;;;;;;;13.82;79.86;101477.44;1692924;83;25896;-83
2022/10/18 03:33:32;;;;;;;15.48;9.35;;;;;;;13.81;79.84;101479.30;1685259;84;25933;-83
2022/10/18 03:35:59;;;;;;;11.65;8.45;;;;;;;13.80;79.68;101472.25;1693665;83;25905;-80
2022/10/18 03:38:25;;;;;;;12.63;8.48;;;;;;;13.79;79.71;101471.10;1692124;84;25926;-81
2022/10/18 03:40:51;;;;;;;14.00;8.75;;;;;;;13.78;79.65;101468.07;1689848;84;28268;-81
2022/10/18 03:43:18;;;;;;;13.83;8.68;;;;;;;13.76;79.67;101468.77;1687676;84;25908;-80
2022/10/18 03:45:44;;;;;;;12.75;9.05;;;;;;;13.74;79.67;101473.00;1692587;84;25300;-80
2022/10/18 03:48:10;;;;;;;12.20;9.28;;;;;;;13.74;79.70;101474.84;1690487;84;25955;-80
2022/10/18 03:50:37;;;;;;;16.70;9.38;;;;;;;13.73;79.68;101474.52;1693328;84;25276;-81
2022/10/18 03:53:04;;;;;;;15.35;10.23;;;;;;;13.72;79.63;101476.39;1690135;84;27637;-81
2022/10/18 03:55:30;;;;;;;13.18;10.38;;;;;;;13.71;79.64;101477.91;1752695;81;25845;-81
2022/10/18 03:57:57;;;;;;;14.38;9.85;;;;;;;13.69;79.65;101476.75;1753516;80;26515;-81
2022/10/18 04:00:23;;;;;;;15.15;9.25;;;;;;;13.67;79.64;101482.83;1754332;81;25708;-81
2022/10/18 04:02:49;;;;;;;14.87;9.45;;;;;;;13.66;79.62;101475.80;1754343;81;25704;-85
2022/10/18 04:05:16;;;;;;;11.65;8.60;;;;;;;13.65;79.64;101475.45;1753858;81;27464;-81
2022/10/18 04:07:42;;;;;;;16.52;9.58;;;;;;;13.65;79.63;101482.19;1750892;81;25908;-81
2022/10/18 04:10:08;;;;;;;14.05;9.05;;;;;;;13.62;79.52;101477.16;1753532;80;25839;-80
2022/10/18 04:12:35;;;;;;;14.07;8.95;;;;;;;13.61;79.48;101485.43;1765568;80;26462;-80
2022/10/18 04:15:02;;;;;;;12.63;8.33;;;;;;;13.57;79.48;101484.97;1753272;81;26344;-83
2022/10/18 04:17:28;;;;;;;14.53;9.40;;;;;;;13.56;79.51;101483.79;1742883;80;27421;-82
2022/10/18 04:19:55;;;;;;;14.05;9.93;;;;;;;13.55;79.52;101484.33;1687943;83;25900;-81
2022/10/18 04:22:21;;;;;;;13.88;9.23;;;;;;;13.54;79.57;101483.14;1689532;84;25386;-81
2022/10/18 04:24:47;;;;;;;12.78;9.50;;;;;;;13.53;79.59;101489.05;1689507;84;25809;-81
2022/10/18 04:27:14;;;;;;;10.63;9.08;;;;;;;13.53;79.56;101492.25;1710197;81;25845;-80
2022/10/18 04:29:40;;;;;;;15.72;10.13;;;;;;;13.52;79.55;101483.84;1704835;83;28280;-82
2022/10/18 04:32:06;;;;;;;13.40;9.55;;;;;;;13.51;79.59;101479.48;1701201;82;25276;-82
2022/10/18 04:34:33;;;;;;;14.98;9.20;;;;;;;13.49;79.61;101481.03;1705199;83;25764;-82
2022/10/18 04:37:01;;;;;;;11.93;9.58;;;;;;;13.48;79.66;101482.53;1696549;82;26296;-81
2022/10/18 04:39:27;;;;;;;12.25;9.08;;;;;;;13.47;79.67;101483.58;1701469;81;26387;-81
2022/10/18 04:41:54;;;;;;;18.95;10.38;;;;;;;13.46;79.64;101483.23;1664949;84;27548;-83
2022/10/18 04:44:20;;;;;;;17.42;10.23;;;;;;;13.45;79.64;101487.77;1668208;84;25757;-81
2022/10/18 04:46:47;;;;;;;15.30;10.23;;;;;;;13.44;79.63;101485.27;1667472;84;25873;-82
2022/10/18 04:49:13;;;;;;;14.53;10.08;;;;;;;13.42;79.67;101486.81;1698987;83;25811;-82
2022/10/18 04:51:39;;;;;;;15.32;10.20;;;;;;;13.42;79.70;101491.35;1695255;82;25815;-81
2022/10/18 04:54:06;;;;;;;17.55;10.55;;;;;;;13.41;79.69;101483.78;1694778;82;27440;-81
2022/10/18 04:56:32;;;;;;;18.70;10.58;;;;;;;13.41;79.74;101491.85;1687112;82;25822;-81
2022/10/18 04:58:58;;;;;;;16.75;10.08;;;;;;;13.39;79.68;101491.20;1689565;83;25751;-81
2022/10/18 05:01:25;;;;;;;16.42;9.75;;;;;;;13.39;79.67;101492.55;1698611;84;26494;-81
2022/10/18 05:03:53;;;;;;;13.43;9.73;;;;;;;13.36;79.68;101487.55;1699064;83;25760;-81
2022/10/18 05:06:21;;;;;;;13.15;9.45;;;;;;;13.36;79.64;101486.20;1698281;82;28636;-81
2022/10/18 05:08:48;;;;;;;12.88;9.20;;;;;;;13.35;79.65;101493.09;1699723;82;25807;-81
2022/10/18 05:11:14;;;;;;;15.55;9.95;;;;;;;13.34;79.65;101488.75;1702703;82;26458;-80
2022/10/18 05:13:40;;;;;;;13.93;10.25;;;;;;;13.32;79.62;101482.72;1705643;82;25791;-81
2022/10/18 05:16:07;;;;;;;14.35;9.53;;;;;;;13.30;79.67;101493.64;1699131;83;25638;-82
2022/10/18 05:18:33;;;;;;;16.93;10.30;;;;;;;13.27;79.63;101487.30;1703832;82;27449;-83
2022/10/18 05:20:59;;;;;;;13.00;9.88;;;;;;;13.26;79.61;101488.83;1703902;83;25923;-86
2022/10/18 05:23:26;;;;;;;15.00;9.38;;;;;;;13.22;79.59;101494.22;1701379;81;25623;-81
2022/10/18 05:25:53;;;;;;;21.33;9.60;;;;;;;13.18;79.52;101499.14;1693910;81;25773;-81
2022/10/18 05:28:19;;;;;;;11.57;8.75;;;;;;;13.15;79.58;101503.56;1702741;82;26399;-79
2022/10/18 05:30:46;;;;;;;11.55;8.65;;;;;;;13.13;79.56;101503.72;1687832;82;27454;-81
2022/10/18 05:33:12;;;;;;;12.65;8.95;;;;;;;13.11;79.45;101508.95;1700550;82;25845;-81
2022/10/18 05:35:38;;;;;;;12.03;8.45;;;;;;;13.08;79.54;101511.52;1704541;82;25289;-82
2022/10/18 05:38:05;;;;;;;14.90;9.88;;;;;;;13.06;79.59;101512.20;1699167;82;26256;-81
2022/10/18 05:40:33;;;;;;;11.20;8.50;;;;;;;13.04;79.62;101511.52;1693137;82;26072;-83
2022/10/18 05:42:59;;;;;;;11.88;8.60;;;;;;;13.03;79.67;101509.83;1696483;83;27428;-82
2022/10/18 05:45:25;;;;;;;14.55;9.30;;;;;;;13.03;79.87;101510.33;1688568;82;25871;-81
2022/10/18 05:47:52;;;;;;;13.35;9.13;;;;;;;13.05;79.99;101512.36;1698616;83;25324;-81
2022/10/18 05:50:18;;;;;;;13.85;9.63;;;;;;;13.05;80.13;101509.67;1699074;83;25906;-81
2022/10/18 05:52:44;;;;;;;13.20;9.78;;;;;;;13.05;80.20;101509.67;1757477;80;25857;-81
2022/10/18 05:55:10;;;;;;;14.65;8.78;;;;;;;13.06;80.26;101518.93;1751111;80;28262;-81
2022/10/18 05:57:37;;;;;;;14.45;9.38;;;;;;;13.07;80.36;101526.47;1749104;80;25789;-81
2022/10/18 06:00:04;;;;;;;13.65;9.63;;;;;;;13.07;80.45;101521.93;1755572;80;25387;-80
2022/10/18 06:02:32;;;;;;;17.15;10.40;;;;;;;13.08;80.52;101521.43;1749120;80;26228;-80
2022/10/18 06:04:58;;;;;;;14.87;10.35;;;;;;;13.09;80.62;101533.34;1765749;80;25767;-80
2022/10/18 06:07:25;;;;;;;17.45;10.13;;;;;;;13.08;80.66;101524.97;1752082;80;27407;-81
2022/10/18 06:09:51;;;;;;;15.13;9.68;;;;;;;13.09;80.76;101527.12;1763541;80;25920;-81
2022/10/18 06:12:17;;;;;;;13.55;10.30;;;;;;;13.10;80.85;101525.62;1758080;80;25758;-81
2022/10/18 06:14:43;;;;;;;16.02;9.58;;;;;;;13.12;80.94;101529.47;1774973;80;25774;-81
2022/10/18 06:17:10;;;;;;;18.23;9.55;;;;;;;13.13;81.02;101530.62;1753263;80;25940;-81
2022/10/18 06:19:36;;;;;;;11.55;9.45;;;;;;;13.14;81.09;101533.65;1747999;80;27450;-80
2022/10/18 06:22:03;;;;;;;15.60;10.38;;;;;;;13.18;81.16;101527.39;1752593;80;25951;-81
2022/10/18 06:24:29;;;;;;;11.05;9.03;;;;;;;13.20;81.24;101532.58;1744763;80;25923;-82
2022/10/18 06:26:56;;;;;;;11.43;9.35;;;;;;;13.20;81.41;101534.77;1747652;80;25836;-81
2022/10/18 06:29:22;;;;;;;12.53;7.92;;;;;;;13.23;81.53;101539.80;1747594;80;25796;-81
2022/10/18 06:31:49;;;;;;;11.43;8.98;;;;;;;13.25;81.69;101539.11;1745628;80;27446;-81
2022/10/18 06:34:15;;;;;;;12.43;8.83;;;;;;;13.29;81.74;101536.88;1755236;80;26150;-82
2022/10/18 06:36:41;;;;;;;14.65;9.78;;;;;;;13.31;81.91;101530.81;1767432;80;25803;-80
2022/10/18 06:39:09;;;;;;;13.55;10.05;;;;;;;13.34;82.04;101533.15;1760739;80;25860;-82
2022/10/18 06:41:35;;;;;;;12.07;9.25;;;;;;;13.37;82.17;101536.80;1751207;80;25951;-80
2022/10/18 06:44:12;;;;;;;16.80;10.43;;;;;;;13.40;82.29;101526.53;1745329;80;27506;-82
2022/10/18 06:46:32;;;;;;;14.47;10.30;;;;;;;13.45;82.42;101528.14;1743684;80;25821;-82
2022/10/18 06:48:58;;;;;;;14.80;10.25;;;;;;;13.48;82.54;101535.02;1752473;80;25844;-80
2022/10/18 06:51:25;;;;;;;16.27;10.72;;;;;;;13.51;82.71;101536.02;1743848;80;26249;-82
2022/10/18 06:53:51;;;;;;;12.37;9.63;;;;;;;13.55;82.74;101540.01;1751182;80;25824;-82
2022/10/18 06:56:17;;;;;;;16.27;9.98;;;;;;;13.59;82.90;101542.16;1752117;80;27503;-81
2022/10/18 06:58:44;;;;;;;13.50;9.93;;;;;;;13.62;82.95;101544.46;1753622;80;25927;-81
2022/10/18 07:01:18;;;;;;;19.07;10.90;;;;;;;13.63;82.84;101547.50;1761287;80;25282;-82
2022/10/18 07:03:44;;;;;;;20.92;10.98;;;;;;;13.67;82.99;101547.95;1763436;80;25764;-81
2022/10/18 07:06:14;;;;;;;13.75;10.45;;;;;;;13.70;82.96;101543.56;1773051;80;25255;-82
2022/10/18 07:08:41;;;;;;;15.97;10.07;;;;;;;13.73;83.02;101541.33;1750570;80;27489;-81
2022/10/18 07:11:14;;;;;;;17.02;10.10;;;;;;;13.76;82.96;101538.28;1766652;80;25768;-82
2022/10/18 07:13:40;;;;;;;16.82;11.45;;;;;;;13.79;82.83;101538.42;1763800;80;26443;-80
2022/10/18 07:16:10;;;;;;;17.87;10.65;;;;;;;13.81;83.05;101538.53;1775925;80;26531;-80
2022/10/18 07:18:41;;;;;;;16.27;10.40;;;;;;;13.86;83.05;101533.45;1762793;80;25786;-82
2022/10/18 07:21:10;;;;;;;;;;;;;;;13.89;83.00;101523.66;1753220;80;27457;-81
2022/10/18 07:23:39;;;;;;;16.50;10.48;;;;;;;13.92;82.99;101520.58;1757996;80;26065;-82
2022/10/18 07:26:23;;;;;;;16.55;10.30;;;;;;;13.93;83.12;101517.38;1760327;79;26117;-81
2022/10/18 07:28:54;;;;;;;14.00;10.28;;;;;;;13.96;83.10;101522.41;1737088;80;25630;-80
2022/10/18 07:31:22;;;;;;;15.80;11.15;;;;;;;14.00;82.99;101524.20;1747530;80;26510;-81
2022/10/18 07:33:49;;;;;;;15.08;10.13;;;;;;;14.04;82.96;101518.77;1757600;80;27466;-82
2022/10/18 07:36:15;;;;;;;14.93;9.95;;;;;;;14.09;82.95;101521.23;1752177;80;25799;-80
2022/10/18 07:38:41;;;;;;;17.48;12.20;;;;;;;14.13;83.03;101533.31;1753158;80;26511;-80
2022/10/18 07:41:11;;;;;;;18.48;12.65;;;;;;;14.18;82.88;101538.14;1747551;80;25746;-82
2022/10/18 07:43:45;;;;;;;19.35;13.10;;;;;;;14.20;82.85;101537.44;1745030;80;25733;-83
2022/10/18 07:46:13;;;;;;;18.20;12.63;;;;;;;14.25;82.88;101534.50;1742389;80;27445;-82
2022/10/18 07:48:40;;;;;;;20.45;12.85;;;;;;;14.30;82.87;101529.42;1747406;81;25763;-80
2022/10/18 07:51:07;;;;;;;24.07;13.85;;;;;;;14.36;83.03;101531.86;1745877;81;25260;-81
2022/10/18 07:53:34;;;;;;;17.48;12.90;;;;;;;14.43;83.12;101534.98;1689287;83;25833;-81
2022/10/18 07:56:04;;;;;;;16.27;11.30;;;;;;;14.50;83.18;101527.78;1728655;80;26530;-80
2022/10/18 07:58:32;;;;;;;22.77;12.05;;;;;;;14.57;83.06;101521.12;1699263;84;28522;-81
2022/10/18 08:01:06;;;;;;;15.98;11.70;;;;;;;14.66;83.01;101524.03;1753766;80;25824;-80
2022/10/18 08:03:33;;;;;;;14.55;11.70;;;;;;;14.74;83.00;101514.47;1773605;80;25895;-81
2022/10/18 08:05:59;;;;;;;17.52;11.05;;;;;;;14.84;83.17;101508.23;1686701;83;26455;-82
2022/10/18 08:08:26;;;;;;;19.57;11.53;;;;;;;14.94;82.81;101516.86;1700368;84;26010;-80
2022/10/18 08:10:52;;;;;;;19.30;12.43;;;;;;;15.05;82.66;101511.45;1704335;82;28676;-81
2022/10/18 08:13:19;;;;;;;15.10;11.50;;;;;;;15.14;82.53;101516.52;1699827;84;25827;-81
2022/10/18 08:15:46;;;;;;;18.10;11.83;;;;;;;15.24;82.45;101520.24;1710689;82;25909;-82
2022/10/18 08:18:12;;;;;;;18.85;12.85;;;;;;;15.32;82.02;101515.54;1699253;82;25759;-81
2022/10/18 08:20:44;;;;;;;16.77;12.98;;;;;;;15.41;81.80;101506.78;1696820;82;25914;-81
2022/10/18 08:23:10;;;;;;;20.05;12.07;;;;;;;15.52;82.11;101507.63;1700595;82;27469;-82
2022/10/18 08:25:37;;;;;;;17.40;12.05;;;;;;;15.62;82.25;101501.35;1699046;83;26493;-82
2022/10/18 08:28:04;;;;;;;19.95;12.70;;;;;;;15.73;82.20;101500.81;1696848;83;25937;-81
2022/10/18 08:30:30;;;;;;;18.40;12.93;;;;;;;15.81;82.24;101502.50;1709365;82;27531;-82
2022/10/18 08:32:56;;;;;;;19.42;13.22;;;;;;;15.86;81.17;101505.45;1710323;82;25922;-81
2022/10/18 08:35:22;;;;;;;18.50;13.35;;;;;;;15.88;81.17;101496.12;1710836;82;27468;-81
2022/10/18 08:37:49;;;;;;;19.40;13.00;;;;;;;15.93;81.16;101499.58;1699920;82;25891;-82
2022/10/18 08:40:15;;;;;;;23.57;15.08;;;;;;;15.96;81.12;101503.21;1700612;83;25744;-81
2022/10/18 08:43:04;;;;;;;18.02;13.85;;;;;;;16.01;81.22;101500.25;1700620;82;25632;-80
2022/10/18 08:45:36;;;;;;;15.48;13.10;;;;;;;16.04;81.05;101501.18;1689460;82;26802;-82
2022/10/18 08:48:05;;;;;;;18.37;13.53;;;;;;;16.06;81.14;101499.11;1761170;80;27435;-83
2022/10/18 08:50:36;;;;;;;19.67;14.20;;;;;;;16.12;80.96;101500.19;1722916;82;26421;-81
2022/10/18 08:53:20;;;;;;;18.37;13.98;;;;;;;16.14;81.06;101500.83;1722601;81;26475;-82
2022/10/18 08:55:51;;;;;;;19.65;14.28;;;;;;;16.19;81.18;101494.27;1688561;83;25760;-82
2022/10/18 08:58:25;;;;;;;19.98;14.40;;;;;;;16.25;81.21;101496.70;1691702;83;25903;-81
2022/10/18 09:01:09;;;;;;;18.27;13.70;;;;;;;16.30;81.42;101494.21;1700002;84;27458;-80
2022/10/18 09:04:18;;;;;;;20.15;14.70;;;;;;;16.34;81.44;101494.96;1689566;83;25836;-82
2022/10/18 09:06:59;;;;;;;21.60;14.78;;;;;;;16.40;81.53;101500.91;1697354;83;25771;-83
2022/10/18 09:09:42;;;;;;;20.20;15.03;;;;;;;16.52;81.44;101496.62;1687069;84;25514;-82
2022/10/18 09:12:57;;;;;;;23.25;15.35;;;;;;;16.52;81.44;101496.62;1686922;84;25760;-83
2022/10/18 09:15:58;;;;;;;23.52;14.78;;;;;;;16.59;81.88;101491.23;1688055;84;27506;-81
2022/10/18 09:18:43;;;;;;;;;;;;;;;16.67;81.87;101477.00;1690428;83;25797;-81
2022/10/18 09:21:45;;;;;;;20.88;15.08;;;;;;;16.72;81.65;101477.20;1687422;84;25777;-81
2022/10/18 09:24:20;;;;;;;22.42;15.32;;;;;;;16.75;81.63;101473.26;1698620;83;25800;-81
2022/10/18 09:26:49;;;;;;;23.18;15.48;;;;;;;16.78;81.44;101470.16;1693812;83;26404;-81
2022/10/18 09:29:30;;;;;;;19.87;15.05;;;;;;;16.82;81.68;101468.70;1713356;82;28287;-81
2022/10/18 09:32:17;;;;;;;22.45;16.32;;;;;;;16.84;81.34;101465.27;1710008;82;26149;-81
2022/10/18 09:34:57;;;;;;;21.00;16.05;;;;;;;16.85;81.29;101466.40;1716610;83;25811;-81
2022/10/18 09:37:28;;;;;;;23.73;17.32;;;;;;;16.86;81.28;101457.77;1712890;83;25843;-80
2022/10/18 09:40:17;;;;;;;24.05;16.67;;;;;;;16.87;81.32;101462.97;1723116;82;26439;-81
2022/10/18 09:43:00;;;;;;;27.73;16.60;;;;;;;16.87;81.18;101454.84;1720376;82;28743;-81
2022/10/18 09:45:31;;;;;;;26.57;17.42;;;;;;;16.90;81.41;101450.39;1725676;81;25770;-80
2022/10/18 09:48:14;;;;;;;26.05;17.70;;;;;;;16.93;81.21;101449.98;1680745;83;25769;-81
2022/10/18 09:51:01;;;;;;;27.30;17.92;;;;;;;16.96;81.44;101444.66;1703989;82;25863;-80
2022/10/18 09:53:57;;;;;;;28.20;20.17;;;;;;;16.98;81.08;101440.70;1693391;82;25524;-80
2022/10/18 09:56:49;;;;;;;23.38;17.45;;;;;;;16.99;81.02;101441.55;1698681;82;27539;-81
2022/10/18 09:59:33;;;;;;;25.40;17.82;;;;;;;17.03;81.20;101439.23;1695260;82;25883;-80
2022/10/18 10:01:59;;;;;;;23.07;17.75;;;;;;;17.05;81.15;101433.09;1694987;82;25426;-80
2022/10/18 10:04:26;;;;;;;30.60;18.17;;;;;;;17.08;81.32;101426.77;1703290;82;25848;-79
2022/10/18 10:06:55;;;;;;;24.00;16.55;;;;;;;17.14;81.63;101417.80;1697859;82;25837;-81
2022/10/18 10:09:45;;;;;;;22.05;17.20;;;;;;;17.22;81.71;101420.28;1695614;82;28283;-81
2022/10/18 10:12:32;;;;;;;31.42;18.67;;;;;;;17.27;81.42;101412.89;1699844;82;25974;-81
2022/10/18 10:15:19;;;;;;;24.02;18.57;;;;;;;17.33;81.25;101399.85;1704062;82;26518;-80
2022/10/18 10:18:18;;;;;;;25.48;17.02;;;;;;;17.38;81.54;101402.25;1702832;82;25769;-80
2022/10/18 10:20:51;;;;;;;26.62;19.57;;;;;;;17.44;81.53;101401.41;1702775;83;25827;-80
2022/10/18 10:23:28;;;;;;;27.17;19.48;;;;;;;17.54;81.59;101407.23;1703864;82;28249;-81
2022/10/18 10:25:58;;;;;;;31.62;18.73;;;;;;;17.60;81.54;101406.89;1714152;82;25322;-80
2022/10/18 10:28:35;;;;;;;24.95;18.85;;;;;;;17.66;81.45;101400.65;1675482;83;26614;-81
2022/10/18 10:31:28;;;;;;;25.75;18.35;;;;;;;17.70;81.24;101410.84;1699538;82;25935;-80
2022/10/18 10:34:17;;;;;;;21.75;17.57;;;;;;;17.73;80.89;101403.34;1693770;82;25863;-80
2022/10/18 10:36:51;;;;;;;25.92;18.42;;;;;;;17.75;80.73;101395.83;1699670;82;27577;-81
2022/10/18 10:39:21;;;;;;;24.18;18.82;;;;;;;17.79;80.90;101397.89;1693725;83;25671;-82
2022/10/18 10:41:54;;;;;;;26.10;19.20;;;;;;;17.85;80.98;101397.03;1717130;82;26059;-86
2022/10/18 10:44:25;;;;;;;27.60;18.27;;;;;;;17.88;80.94;101385.74;1697790;82;26417;-81
2022/10/18 10:46:53;;;;;;;26.45;19.55;;;;;;;17.96;81.45;101389.59;1703747;82;25311;-83
2022/10/18 10:49:23;;;;;;;26.87;19.37;;;;;;;18.05;81.06;101383.39;1718162;82;27480;-80
2022/10/18 10:52:00;;;;;;;25.72;18.40;;;;;;;18.11;80.86;101377.09;1696742;83;25924;-80
2022/10/18 10:54:34;;;;;;;27.75;19.30;;;;;;;18.15;80.90;101378.32;1685423;83;25515;-83
2022/10/18 10:57:09;;;;;;;25.50;19.52;;;;;;;18.21;80.63;101372.86;1705963;82;26369;-80
2022/10/18 10:59:48;;;;;;;27.73;19.00;;;;;;;18.29;80.84;101359.03;1684102;82;25853;-80
2022/10/18 11:02:22;;;;;;;31.77;20.32;;;;;;;18.35;80.47;101357.31;1694360;82;27354;-81
2022/10/18 11:04:55;;;;;;;24.32;18.25;;;;;;;18.42;80.79;101357.59;1696020;83;26498;-82
2022/10/18 11:07:40;;;;;;;23.80;18.32;;;;;;;18.50;80.38;101347.02;1683333;83;25755;-82
2022/10/18 11:10:14;;;;;;;27.58;17.67;;;;;;;18.56;80.34;101335.83;1684259;83;25902;-84
2022/10/18 11:12:47;;;;;;;25.52;18.20;;;;;;;18.61;80.31;101330.55;1696310;82;26583;-80
2022/10/18 11:15:35;;;;;;;22.07;17.98;;;;;;;18.62;79.83;101323.56;1696384;82;28287;-81
2022/10/18 11:18:24;;;;;;;24.67;18.32;;;;;;;18.63;79.64;101325.20;1699993;82;25785;-83
2022/10/18 11:21:09;;;;;;;25.72;19.07;;;;;;;18.63;79.78;101327.92;1691450;82;25747;-80
2022/10/18 11:23:39;;;;;;;23.27;19.02;;;;;;;18.64;79.62;101327.40;1687683;83;25714;-82
2022/10/18 11:26:14;;;;;;;21.27;17.98;;;;;;;18.68;79.89;101332.69;1709244;82;25939;-81
2022/10/18 11:29:03;;;;;;;26.85;19.27;;;;;;;18.72;79.85;101331.19;1689639;83;27480;-81
2022/10/18 11:31:47;;;;;;;23.80;17.90;;;;;;;18.76;79.75;101330.52;1699825;82;25941;-80
2022/10/18 11:34:30;;;;;;;22.17;18.35;;;;;;;18.78;79.56;101324.86;1687393;83;26424;-80